DLH122 EDDF-EHAM
Flight info
| Callsign | DLH122 |
|---|---|
| Flight time | N/A |
| Altitude | 24000 |
| Route | MARUN3W/25C MARUN Y152 ARPEG Z850 HMM T281 NORKU |
| Aircraft | A20N/M-SDE2E3FGHIRWXY/LB1 |
Departure
| Time | 2026-05-07 08:43 |
|---|---|
| Airport | Frankfurt Main Airport (EDDF) |
Arrival
| Time | N/A |
|---|---|
| Airport | Amsterdam Airport Schiphol (EHAM) |
| Time | Latitude | Longitude | Altitude | Speed | Heading |
|---|---|---|---|---|---|
| 2026-05-07 08:13 | 50.04853 | 8.56941 | 361 ft | 0 kts | 295° |
| 2026-05-07 08:31 | 50.04851 | 8.56949 | 359 ft | 4 kts | 295° |
| 2026-05-07 08:31 | 50.04840 | 8.56987 | 361 ft | 4 kts | 293° |
| 2026-05-07 08:31 | 50.04831 | 8.57024 | 363 ft | 3 kts | 283° |
| 2026-05-07 08:31 | 50.04829 | 8.57047 | 362 ft | 2 kts | 246° |
| 2026-05-07 08:32 | 50.04835 | 8.57062 | 363 ft | 2 kts | 215° |
| 2026-05-07 08:32 | 50.04845 | 8.57071 | 366 ft | 2 kts | 207° |
| 2026-05-07 08:32 | 50.04855 | 8.57078 | 363 ft | 0 kts | 205° |
| 2026-05-07 08:35 | 50.04853 | 8.57077 | 364 ft | 2 kts | 205° |
| 2026-05-07 08:35 | 50.04814 | 8.57052 | 365 ft | 9 kts | 202° |
| 2026-05-07 08:36 | 50.04748 | 8.56999 | 359 ft | 12 kts | 207° |
| 2026-05-07 08:36 | 50.04665 | 8.56938 | 362 ft | 14 kts | 202° |
| 2026-05-07 08:36 | 50.04563 | 8.56895 | 362 ft | 16 kts | 188° |
| 2026-05-07 08:36 | 50.04446 | 8.56855 | 363 ft | 18 kts | 192° |
| 2026-05-07 08:37 | 50.04331 | 8.56824 | 359 ft | 12 kts | 189° |
| 2026-05-07 08:37 | 50.04282 | 8.56894 | 363 ft | 12 kts | 81° |
| 2026-05-07 08:37 | 50.04311 | 8.57046 | 359 ft | 20 kts | 72° |
| 2026-05-07 08:37 | 50.04365 | 8.57273 | 361 ft | 24 kts | 72° |
| 2026-05-07 08:38 | 50.04424 | 8.57527 | 359 ft | 26 kts | 70° |
| 2026-05-07 08:38 | 50.04488 | 8.57794 | 362 ft | 23 kts | 69° |
| 2026-05-07 08:38 | 50.04510 | 8.57884 | 361 ft | 9 kts | 69° |
| 2026-05-07 08:38 | 50.04524 | 8.57940 | 361 ft | 0 kts | 69° |
| 2026-05-07 08:39 | 50.04524 | 8.57943 | 360 ft | 2 kts | 69° |
| 2026-05-07 08:39 | 50.04547 | 8.58038 | 363 ft | 11 kts | 69° |
| 2026-05-07 08:39 | 50.04577 | 8.58160 | 363 ft | 14 kts | 69° |
| 2026-05-07 08:40 | 50.04613 | 8.58313 | 364 ft | 18 kts | 70° |
| 2026-05-07 08:40 | 50.04655 | 8.58507 | 359 ft | 19 kts | 89° |
| 2026-05-07 08:40 | 50.04644 | 8.58549 | 360 ft | 0 kts | 129° |
| 2026-05-07 08:40 | 50.04628 | 8.58566 | 360 ft | 8 kts | 152° |
| 2026-05-07 08:41 | 50.04611 | 8.58578 | 362 ft | 2 kts | 158° |
| 2026-05-07 08:41 | 50.04587 | 8.58591 | 362 ft | 5 kts | 160° |
| 2026-05-07 08:41 | 50.04525 | 8.58619 | 367 ft | 14 kts | 174° |
| 2026-05-07 08:41 | 50.04476 | 8.58549 | 365 ft | 0 kts | 245° |
| 2026-05-07 08:42 | 50.04475 | 8.58546 | 365 ft | 0 kts | 246° |
| 2026-05-07 08:42 | 50.04475 | 8.58545 | 365 ft | 1 kts | 246° |
| 2026-05-07 08:42 | 50.04404 | 8.58250 | 364 ft | 66 kts | 250° |
| 2026-05-07 08:42 | 50.04163 | 8.57234 | 363 ft | 128 kts | 249° |
| 2026-05-07 08:43 | 50.03791 | 8.55724 | 399 ft | 170 kts | 249° |
| 2026-05-07 08:43 | 50.03355 | 8.53984 | 951 ft | 176 kts | 249° |
| 2026-05-07 08:43 | 50.02871 | 8.52147 | 1497 ft | 191 kts | 246° |
| 2026-05-07 08:43 | 50.02278 | 8.50256 | 2173 ft | 197 kts | 243° |
| 2026-05-07 08:44 | 50.01554 | 8.48356 | 2612 ft | 217 kts | 236° |
| 2026-05-07 08:44 | 50.00459 | 8.46716 | 3353 ft | 220 kts | 205° |
| 2026-05-07 08:44 | 49.98987 | 8.46275 | 4193 ft | 219 kts | 177° |
| 2026-05-07 08:44 | 49.97448 | 8.46512 | 4857 ft | 224 kts | 172° |
| 2026-05-07 08:45 | 49.95873 | 8.46639 | 5517 ft | 230 kts | 185° |
| 2026-05-07 08:45 | 49.94268 | 8.46222 | 6168 ft | 243 kts | 192° |
| 2026-05-07 08:45 | 49.92573 | 8.45506 | 6690 ft | 259 kts | 206° |
| 2026-05-07 08:45 | 49.91166 | 8.43833 | 7524 ft | 254 kts | 234° |
| 2026-05-07 08:46 | 49.90440 | 8.41395 | 8448 ft | 249 kts | 262° |
| 2026-05-07 08:46 | 49.90543 | 8.38755 | 9324 ft | 248 kts | 289° |
| 2026-05-07 08:46 | 49.91456 | 8.36504 | 10136 ft | 252 kts | 316° |
| 2026-05-07 08:46 | 49.92980 | 8.35130 | 10849 ft | 259 kts | 337° |
| 2026-05-07 08:47 | 49.94726 | 8.34102 | 11250 ft | 279 kts | 337° |
| 2026-05-07 08:47 | 49.96610 | 8.32953 | 11521 ft | 302 kts | 336° |
| 2026-05-07 08:47 | 49.98629 | 8.31676 | 11770 ft | 325 kts | 336° |
| 2026-05-07 08:47 | 50.00755 | 8.30304 | 12294 ft | 335 kts | 336° |
| 2026-05-07 08:48 | 50.02940 | 8.28983 | 13072 ft | 339 kts | 343° |
| 2026-05-07 08:48 | 50.05293 | 8.28522 | 13824 ft | 345 kts | 1° |
| 2026-05-07 08:48 | 50.07665 | 8.29191 | 14487 ft | 350 kts | 17° |
| 2026-05-07 08:48 | 50.09984 | 8.30414 | 15178 ft | 354 kts | 17° |
| 2026-05-07 08:49 | 50.12328 | 8.31658 | 15851 ft | 357 kts | 17° |
| 2026-05-07 08:49 | 50.14691 | 8.32907 | 16503 ft | 361 kts | 17° |
| 2026-05-07 08:49 | 50.17082 | 8.34167 | 17174 ft | 364 kts | 17° |
| 2026-05-07 08:49 | 50.19499 | 8.35437 | 17830 ft | 368 kts | 17° |
| 2026-05-07 08:50 | 50.21907 | 8.36702 | 18446 ft | 372 kts | 17° |
| 2026-05-07 08:50 | 50.24368 | 8.37998 | 19032 ft | 374 kts | 17° |
| 2026-05-07 08:50 | 50.26881 | 8.39323 | 19625 ft | 378 kts | 17° |
| 2026-05-07 08:50 | 50.29347 | 8.40623 | 20175 ft | 381 kts | 17° |
| 2026-05-07 08:51 | 50.31863 | 8.41973 | 20736 ft | 384 kts | 18° |
| 2026-05-07 08:51 | 50.34393 | 8.43356 | 21291 ft | 387 kts | 18° |
| 2026-05-07 08:51 | 50.36946 | 8.44757 | 21837 ft | 390 kts | 18° |
| 2026-05-07 08:51 | 50.39520 | 8.46169 | 22362 ft | 393 kts | 18° |
| 2026-05-07 08:52 | 50.42115 | 8.47593 | 22896 ft | 397 kts | 18° |
| 2026-05-07 08:52 | 50.44733 | 8.49027 | 23414 ft | 400 kts | 18° |
| 2026-05-07 08:52 | 50.47367 | 8.50471 | 23886 ft | 403 kts | 18° |
| 2026-05-07 08:52 | 50.50034 | 8.51852 | 24342 ft | 405 kts | 16° |
| 2026-05-07 08:53 | 50.52739 | 8.53132 | 24795 ft | 407 kts | 15° |
| 2026-05-07 08:53 | 50.55464 | 8.54396 | 25217 ft | 410 kts | 15° |
| 2026-05-07 08:53 | 50.58206 | 8.55678 | 25649 ft | 412 kts | 16° |
| 2026-05-07 08:53 | 50.60959 | 8.56982 | 26061 ft | 415 kts | 16° |
| 2026-05-07 08:54 | 50.63728 | 8.58305 | 26479 ft | 417 kts | 16° |
| 2026-05-07 08:54 | 50.66507 | 8.59641 | 26860 ft | 419 kts | 16° |
| 2026-05-07 08:54 | 50.69309 | 8.60990 | 27252 ft | 422 kts | 16° |
| 2026-05-07 08:54 | 50.72118 | 8.62345 | 27626 ft | 424 kts | 16° |
| 2026-05-07 08:55 | 50.74949 | 8.63670 | 27996 ft | 426 kts | 12° |
| 2026-05-07 08:55 | 50.77888 | 8.64228 | 28339 ft | 427 kts | 359° |
| 2026-05-07 08:55 | 50.80841 | 8.63683 | 28645 ft | 430 kts | 346° |
| 2026-05-07 08:55 | 50.83648 | 8.62043 | 28940 ft | 432 kts | 332° |
| 2026-05-07 08:56 | 50.86150 | 8.59404 | 29232 ft | 435 kts | 319° |
| 2026-05-07 08:56 | 50.88244 | 8.55938 | 29542 ft | 437 kts | 310° |
| 2026-05-07 08:56 | 50.90209 | 8.52245 | 29839 ft | 440 kts | 310° |
| 2026-05-07 08:56 | 50.92174 | 8.48519 | 30141 ft | 442 kts | 310° |
| 2026-05-07 08:57 | 50.94152 | 8.44777 | 30400 ft | 444 kts | 310° |
| 2026-05-07 08:57 | 50.96145 | 8.41016 | 30665 ft | 446 kts | 310° |